sensor_id;sensor_type;location;lat;lon;timestamp;P1;durP1;ratioP1;P2;durP2;ratioP2
32790;SDS011;19143;59.322;14.502;2023-05-10T00:02:09;5.60;;;2.37;;
32790;SDS011;19143;59.322;14.502;2023-05-10T00:04:36;2.10;;;2.00;;
32790;SDS011;19143;59.322;14.502;2023-05-10T00:07:02;2.40;;;2.30;;
32790;SDS011;19143;59.322;14.502;2023-05-10T00:09:29;2.57;;;2.40;;
32790;SDS011;19143;59.322;14.502;2023-05-10T00:11:56;3.80;;;2.60;;
32790;SDS011;19143;59.322;14.502;2023-05-10T00:14:25;3.40;;;2.40;;
32790;SDS011;19143;59.322;14.502;2023-05-10T00:16:51;4.23;;;2.50;;
32790;SDS011;19143;59.322;14.502;2023-05-10T00:19:18;2.60;;;2.33;;
32790;SDS011;19143;59.322;14.502;2023-05-10T00:21:44;4.50;;;2.90;;
32790;SDS011;19143;59.322;14.502;2023-05-10T00:24:11;2.50;;;2.40;;
32790;SDS011;19143;59.322;14.502;2023-05-10T00:26:38;5.93;;;3.00;;
32790;SDS011;19143;59.322;14.502;2023-05-10T00:29:04;3.20;;;2.90;;
32790;SDS011;19143;59.322;14.502;2023-05-10T00:31:33;6.17;;;3.20;;
32790;SDS011;19143;59.322;14.502;2023-05-10T00:33:59;4.47;;;3.20;;
32790;SDS011;19143;59.322;14.502;2023-05-10T00:36:26;3.20;;;3.00;;
32790;SDS011;19143;59.322;14.502;2023-05-10T00:38:53;3.83;;;3.43;;
32790;SDS011;19143;59.322;14.502;2023-05-10T00:41:19;4.00;;;3.70;;
32790;SDS011;19143;59.322;14.502;2023-05-10T00:43:46;4.43;;;3.50;;
32790;SDS011;19143;59.322;14.502;2023-05-10T00:46:13;3.60;;;3.30;;
32790;SDS011;19143;59.322;14.502;2023-05-10T00:48:41;3.20;;;3.00;;
32790;SDS011;19143;59.322;14.502;2023-05-10T00:51:08;4.90;;;3.67;;
32790;SDS011;19143;59.322;14.502;2023-05-10T00:53:35;3.83;;;3.53;;
32790;SDS011;19143;59.322;14.502;2023-05-10T00:56:02;4.10;;;3.57;;
32790;SDS011;19143;59.322;14.502;2023-05-10T00:58:28;3.77;;;3.47;;
32790;SDS011;19143;59.322;14.502;2023-05-10T01:00:56;3.63;;;3.33;;
32790;SDS011;19143;59.322;14.502;2023-05-10T01:03:23;4.00;;;3.30;;
32790;SDS011;19143;59.322;14.502;2023-05-10T01:05:51;7.40;;;3.57;;
32790;SDS011;19143;59.322;14.502;2023-05-10T01:08:17;3.97;;;2.90;;
32790;SDS011;19143;59.322;14.502;2023-05-10T01:10:44;3.77;;;3.10;;
32790;SDS011;19143;59.322;14.502;2023-05-10T01:13:11;5.80;;;3.17;;
32790;SDS011;19143;59.322;14.502;2023-05-10T01:15:38;3.20;;;2.80;;
32790;SDS011;19143;59.322;14.502;2023-05-10T01:18:05;3.57;;;3.27;;
32790;SDS011;19143;59.322;14.502;2023-05-10T01:20:34;3.03;;;2.83;;
32790;SDS011;19143;59.322;14.502;2023-05-10T01:25:57;3.57;;;3.23;;
32790;SDS011;19143;59.322;14.502;2023-05-10T01:31:17;4.10;;;3.13;;
32790;SDS011;19143;59.322;14.502;2023-05-10T01:33:47;5.47;;;3.20;;
32790;SDS011;19143;59.322;14.502;2023-05-10T01:36:19;3.87;;;3.30;;
32790;SDS011;19143;59.322;14.502;2023-05-10T01:38:52;3.57;;;3.27;;
32790;SDS011;19143;59.322;14.502;2023-05-10T01:41:19;3.20;;;3.00;;
32790;SDS011;19143;59.322;14.502;2023-05-10T01:43:50;3.73;;;3.43;;
32790;SDS011;19143;59.322;14.502;2023-05-10T01:46:24;3.60;;;3.40;;
32790;SDS011;19143;59.322;14.502;2023-05-10T01:48:55;3.80;;;3.20;;
32790;SDS011;19143;59.322;14.502;2023-05-10T01:51:25;6.17;;;3.07;;
32790;SDS011;19143;59.322;14.502;2023-05-10T01:53:54;5.90;;;3.63;;
32790;SDS011;19143;59.322;14.502;2023-05-10T01:56:24;4.77;;;3.43;;
32790;SDS011;19143;59.322;14.502;2023-05-10T01:58:51;3.07;;;2.87;;
32790;SDS011;19143;59.322;14.502;2023-05-10T02:01:19;4.30;;;3.13;;
32790;SDS011;19143;59.322;14.502;2023-05-10T02:03:46;3.50;;;3.20;;
32790;SDS011;19143;59.322;14.502;2023-05-10T02:06:15;3.80;;;3.47;;
32790;SDS011;19143;59.322;14.502;2023-05-10T02:08:43;3.60;;;3.30;;
32790;SDS011;19143;59.322;14.502;2023-05-10T02:11:11;5.57;;;3.20;;
32790;SDS011;19143;59.322;14.502;2023-05-10T02:13:39;3.90;;;3.43;;
32790;SDS011;19143;59.322;14.502;2023-05-10T02:16:08;3.20;;;3.00;;
32790;SDS011;19143;59.322;14.502;2023-05-10T02:18:35;3.13;;;2.93;;
32790;SDS011;19143;59.322;14.502;2023-05-10T02:21:02;4.17;;;3.70;;
32790;SDS011;19143;59.322;14.502;2023-05-10T02:23:30;3.93;;;3.53;;
32790;SDS011;19143;59.322;14.502;2023-05-10T02:25:58;4.40;;;3.47;;
32790;SDS011;19143;59.322;14.502;2023-05-10T02:28:26;4.27;;;3.20;;
32790;SDS011;19143;59.322;14.502;2023-05-10T02:30:54;5.20;;;3.73;;
32790;SDS011;19143;59.322;14.502;2023-05-10T02:33:21;3.80;;;3.50;;
32790;SDS011;19143;59.322;14.502;2023-05-10T02:35:48;3.97;;;3.23;;
32790;SDS011;19143;59.322;14.502;2023-05-10T02:38:16;7.63;;;3.60;;
32790;SDS011;19143;59.322;14.502;2023-05-10T02:40:45;5.97;;;4.17;;
32790;SDS011;19143;59.322;14.502;2023-05-10T02:43:12;5.63;;;3.90;;
32790;SDS011;19143;59.322;14.502;2023-05-10T02:45:40;4.30;;;3.90;;
32790;SDS011;19143;59.322;14.502;2023-05-10T02:48:08;4.73;;;3.43;;
32790;SDS011;19143;59.322;14.502;2023-05-10T02:50:34;4.37;;;3.93;;
32790;SDS011;19143;59.322;14.502;2023-05-10T02:53:03;3.47;;;3.27;;
32790;SDS011;19143;59.322;14.502;2023-05-10T02:55:38;4.30;;;3.90;;
32790;SDS011;19143;59.322;14.502;2023-05-10T02:58:08;6.63;;;4.10;;
32790;SDS011;19143;59.322;14.502;2023-05-10T03:00:35;6.67;;;3.80;;
32790;SDS011;19143;59.322;14.502;2023-05-10T03:03:01;11.47;;;4.10;;
32790;SDS011;19143;59.322;14.502;2023-05-10T03:05:28;4.93;;;3.83;;
32790;SDS011;19143;59.322;14.502;2023-05-10T03:07:55;6.60;;;3.97;;
32790;SDS011;19143;59.322;14.502;2023-05-10T03:10:22;5.67;;;3.97;;
32790;SDS011;19143;59.322;14.502;2023-05-10T03:12:53;4.93;;;4.40;;
32790;SDS011;19143;59.322;14.502;2023-05-10T03:15:25;6.83;;;4.20;;
32790;SDS011;19143;59.322;14.502;2023-05-10T03:17:55;9.10;;;4.40;;
32790;SDS011;19143;59.322;14.502;2023-05-10T03:20:24;8.03;;;4.43;;
32790;SDS011;19143;59.322;14.502;2023-05-10T03:22:52;4.77;;;4.03;;
32790;SDS011;19143;59.322;14.502;2023-05-10T03:25:19;4.23;;;3.90;;
32790;SDS011;19143;59.322;14.502;2023-05-10T03:27:47;8.27;;;4.50;;
32790;SDS011;19143;59.322;14.502;2023-05-10T03:30:14;8.80;;;4.30;;
32790;SDS011;19143;59.322;14.502;2023-05-10T03:32:42;4.87;;;4.07;;
32790;SDS011;19143;59.322;14.502;2023-05-10T03:35:09;7.43;;;3.80;;
32790;SDS011;19143;59.322;14.502;2023-05-10T03:37:36;4.33;;;3.70;;
32790;SDS011;19143;59.322;14.502;2023-05-10T03:40:03;4.40;;;3.97;;
32790;SDS011;19143;59.322;14.502;2023-05-10T03:42:30;8.30;;;4.07;;
32790;SDS011;19143;59.322;14.502;2023-05-10T03:44:57;5.80;;;4.33;;
32790;SDS011;19143;59.322;14.502;2023-05-10T03:47:23;5.30;;;4.30;;
32790;SDS011;19143;59.322;14.502;2023-05-10T03:49:51;7.00;;;3.93;;
32790;SDS011;19143;59.322;14.502;2023-05-10T03:52:18;12.70;;;3.50;;
32790;SDS011;19143;59.322;14.502;2023-05-10T03:54:45;11.03;;;4.13;;
32790;SDS011;19143;59.322;14.502;2023-05-10T03:57:11;6.53;;;3.67;;
32790;SDS011;19143;59.322;14.502;2023-05-10T03:59:38;9.87;;;3.77;;
32790;SDS011;19143;59.322;14.502;2023-05-10T04:02:04;4.00;;;3.60;;
32790;SDS011;19143;59.322;14.502;2023-05-10T04:04:31;5.40;;;3.83;;
32790;SDS011;19143;59.322;14.502;2023-05-10T04:06:59;6.70;;;3.63;;
32790;SDS011;19143;59.322;14.502;2023-05-10T04:09:25;5.13;;;4.10;;
32790;SDS011;19143;59.322;14.502;2023-05-10T04:11:52;5.03;;;4.33;;
32790;SDS011;19143;59.322;14.502;2023-05-10T04:14:18;4.87;;;4.33;;
32790;SDS011;19143;59.322;14.502;2023-05-10T04:16:45;5.10;;;3.97;;
32790;SDS011;19143;59.322;14.502;2023-05-10T04:19:12;4.43;;;4.00;;
32790;SDS011;19143;59.322;14.502;2023-05-10T04:21:38;4.93;;;4.37;;
32790;SDS011;19143;59.322;14.502;2023-05-10T04:24:07;6.80;;;3.83;;
32790;SDS011;19143;59.322;14.502;2023-05-10T04:26:33;7.73;;;3.80;;
32790;SDS011;19143;59.322;14.502;2023-05-10T04:29:00;13.53;;;4.70;;
32790;SDS011;19143;59.322;14.502;2023-05-10T04:31:26;7.23;;;4.03;;
32790;SDS011;19143;59.322;14.502;2023-05-10T04:33:53;6.10;;;4.27;;
32790;SDS011;19143;59.322;14.502;2023-05-10T04:36:19;8.13;;;3.73;;
32790;SDS011;19143;59.322;14.502;2023-05-10T04:38:46;4.03;;;3.57;;
32790;SDS011;19143;59.322;14.502;2023-05-10T04:41:14;7.20;;;4.40;;
32790;SDS011;19143;59.322;14.502;2023-05-10T04:43:41;7.37;;;3.67;;
32790;SDS011;19143;59.322;14.502;2023-05-10T04:46:07;6.40;;;4.00;;
32790;SDS011;19143;59.322;14.502;2023-05-10T04:48:34;4.33;;;3.73;;
32790;SDS011;19143;59.322;14.502;2023-05-10T04:51:00;6.27;;;3.97;;
32790;SDS011;19143;59.322;14.502;2023-05-10T04:53:28;7.10;;;3.70;;
32790;SDS011;19143;59.322;14.502;2023-05-10T04:55:55;6.70;;;3.80;;
32790;SDS011;19143;59.322;14.502;2023-05-10T04:58:23;4.47;;;3.50;;
32790;SDS011;19143;59.322;14.502;2023-05-10T05:00:50;6.87;;;3.67;;
32790;SDS011;19143;59.322;14.502;2023-05-10T05:03:16;6.60;;;4.13;;
32790;SDS011;19143;59.322;14.502;2023-05-10T05:05:43;14.43;;;4.17;;
32790;SDS011;19143;59.322;14.502;2023-05-10T05:08:09;9.57;;;3.90;;
32790;SDS011;19143;59.322;14.502;2023-05-10T05:10:36;3.77;;;3.43;;
32790;SDS011;19143;59.322;14.502;2023-05-10T05:13:03;5.23;;;3.50;;
32790;SDS011;19143;59.322;14.502;2023-05-10T05:15:31;4.97;;;3.87;;
32790;SDS011;19143;59.322;14.502;2023-05-10T05:17:57;5.43;;;4.37;;
32790;SDS011;19143;59.322;14.502;2023-05-10T05:20:24;5.40;;;3.80;;
32790;SDS011;19143;59.322;14.502;2023-05-10T05:22:50;9.13;;;3.77;;
32790;SDS011;19143;59.322;14.502;2023-05-10T05:25:17;3.83;;;3.53;;
32790;SDS011;19143;59.322;14.502;2023-05-10T05:27:44;12.63;;;3.50;;
32790;SDS011;19143;59.322;14.502;2023-05-10T05:30:10;5.53;;;3.43;;
32790;SDS011;19143;59.322;14.502;2023-05-10T05:32:39;6.87;;;3.60;;
32790;SDS011;19143;59.322;14.502;2023-05-10T05:35:06;17.10;;;4.40;;
32790;SDS011;19143;59.322;14.502;2023-05-10T05:37:32;25.07;;;5.90;;
32790;SDS011;19143;59.322;14.502;2023-05-10T05:39:59;12.37;;;4.13;;
32790;SDS011;19143;59.322;14.502;2023-05-10T05:42:26;29.80;;;4.60;;
32790;SDS011;19143;59.322;14.502;2023-05-10T05:44:53;5.07;;;3.33;;
32790;SDS011;19143;59.322;14.502;2023-05-10T05:47:20;6.87;;;3.53;;
32790;SDS011;19143;59.322;14.502;2023-05-10T05:49:48;10.50;;;4.53;;
32790;SDS011;19143;59.322;14.502;2023-05-10T05:52:14;4.13;;;3.50;;
32790;SDS011;19143;59.322;14.502;2023-05-10T05:54:41;7.57;;;3.37;;
32790;SDS011;19143;59.322;14.502;2023-05-10T05:57:07;7.03;;;3.50;;
32790;SDS011;19143;59.322;14.502;2023-05-10T05:59:34;16.13;;;4.00;;
32790;SDS011;19143;59.322;14.502;2023-05-10T06:02:01;6.93;;;3.43;;
32790;SDS011;19143;59.322;14.502;2023-05-10T06:04:27;3.47;;;3.23;;
32790;SDS011;19143;59.322;14.502;2023-05-10T06:06:56;11.93;;;3.83;;
32790;SDS011;19143;59.322;14.502;2023-05-10T06:09:22;3.87;;;3.57;;
32790;SDS011;19143;59.322;14.502;2023-05-10T06:11:49;4.13;;;3.30;;
32790;SDS011;19143;59.322;14.502;2023-05-10T06:14:16;9.07;;;3.67;;
32790;SDS011;19143;59.322;14.502;2023-05-10T06:16:43;4.83;;;3.50;;
32790;SDS011;19143;59.322;14.502;2023-05-10T06:19:10;4.23;;;3.10;;
32790;SDS011;19143;59.322;14.502;2023-05-10T06:21:36;4.53;;;3.67;;
32790;SDS011;19143;59.322;14.502;2023-05-10T06:24:05;10.47;;;3.40;;
32790;SDS011;19143;59.322;14.502;2023-05-10T06:26:31;6.17;;;3.30;;
32790;SDS011;19143;59.322;14.502;2023-05-10T06:28:58;8.00;;;3.40;;
32790;SDS011;19143;59.322;14.502;2023-05-10T06:31:25;12.03;;;3.57;;
32790;SDS011;19143;59.322;14.502;2023-05-10T06:33:51;4.13;;;3.30;;
32790;SDS011;19143;59.322;14.502;2023-05-10T06:36:18;7.17;;;3.47;;
32790;SDS011;19143;59.322;14.502;2023-05-10T06:38:45;3.83;;;3.33;;
32790;SDS011;19143;59.322;14.502;2023-05-10T06:41:13;6.73;;;3.23;;
32790;SDS011;19143;59.322;14.502;2023-05-10T06:43:39;9.10;;;3.50;;
32790;SDS011;19143;59.322;14.502;2023-05-10T06:46:06;3.47;;;3.17;;
32790;SDS011;19143;59.322;14.502;2023-05-10T06:48:33;17.50;;;3.23;;
32790;SDS011;19143;59.322;14.502;2023-05-10T06:51:00;6.77;;;3.60;;
32790;SDS011;19143;59.322;14.502;2023-05-10T06:53:26;4.10;;;2.97;;
32790;SDS011;19143;59.322;14.502;2023-05-10T06:55:53;5.30;;;3.87;;
32790;SDS011;19143;59.322;14.502;2023-05-10T06:58:21;6.80;;;3.50;;
32790;SDS011;19143;59.322;14.502;2023-05-10T07:00:47;20.00;;;3.80;;
32790;SDS011;19143;59.322;14.502;2023-05-10T07:03:14;3.83;;;3.20;;
32790;SDS011;19143;59.322;14.502;2023-05-10T07:05:41;9.60;;;3.10;;
32790;SDS011;19143;59.322;14.502;2023-05-10T07:08:07;5.03;;;3.30;;
32790;SDS011;19143;59.322;14.502;2023-05-10T07:10:34;6.17;;;3.27;;
32790;SDS011;19143;59.322;14.502;2023-05-10T07:13:01;3.53;;;3.10;;
32790;SDS011;19143;59.322;14.502;2023-05-10T07:15:29;4.03;;;3.17;;
32790;SDS011;19143;59.322;14.502;2023-05-10T07:17:56;6.60;;;3.40;;
32790;SDS011;19143;59.322;14.502;2023-05-10T07:20:23;3.57;;;3.17;;
32790;SDS011;19143;59.322;14.502;2023-05-10T07:22:49;3.43;;;3.00;;
32790;SDS011;19143;59.322;14.502;2023-05-10T07:25:16;3.90;;;3.10;;
32790;SDS011;19143;59.322;14.502;2023-05-10T07:27:43;6.77;;;3.10;;
32790;SDS011;19143;59.322;14.502;2023-05-10T07:30:10;3.93;;;3.30;;
32790;SDS011;19143;59.322;14.502;2023-05-10T07:32:38;5.17;;;2.97;;
32790;SDS011;19143;59.322;14.502;2023-05-10T07:35:07;3.37;;;3.07;;
32790;SDS011;19143;59.322;14.502;2023-05-10T07:37:33;13.63;;;3.73;;
32790;SDS011;19143;59.322;14.502;2023-05-10T07:40:00;5.77;;;3.17;;
32790;SDS011;19143;59.322;14.502;2023-05-10T07:42:27;8.10;;;3.30;;
32790;SDS011;19143;59.322;14.502;2023-05-10T07:44:54;5.60;;;2.80;;
32790;SDS011;19143;59.322;14.502;2023-05-10T07:47:21;4.73;;;3.10;;
32790;SDS011;19143;59.322;14.502;2023-05-10T07:49:49;5.40;;;3.30;;
32790;SDS011;19143;59.322;14.502;2023-05-10T07:52:16;4.87;;;3.20;;
32790;SDS011;19143;59.322;14.502;2023-05-10T07:54:43;6.00;;;3.23;;
32790;SDS011;19143;59.322;14.502;2023-05-10T07:57:09;3.40;;;3.20;;
32790;SDS011;19143;59.322;14.502;2023-05-10T07:59:36;9.80;;;3.43;;
32790;SDS011;19143;59.322;14.502;2023-05-10T08:02:09;3.50;;;3.20;;
32790;SDS011;19143;59.322;14.502;2023-05-10T08:04:36;11.50;;;3.33;;
32790;SDS011;19143;59.322;14.502;2023-05-10T08:07:04;3.17;;;2.97;;
32790;SDS011;19143;59.322;14.502;2023-05-10T08:09:30;4.20;;;3.10;;
32790;SDS011;19143;59.322;14.502;2023-05-10T08:11:57;12.73;;;3.20;;
32790;SDS011;19143;59.322;14.502;2023-05-10T08:14:24;10.97;;;3.33;;
32790;SDS011;19143;59.322;14.502;2023-05-10T08:16:50;7.13;;;3.50;;
32790;SDS011;19143;59.322;14.502;2023-05-10T08:19:17;7.17;;;3.30;;
32790;SDS011;19143;59.322;14.502;2023-05-10T08:21:46;18.00;;;3.73;;
32790;SDS011;19143;59.322;14.502;2023-05-10T08:24:14;6.70;;;2.90;;
32790;SDS011;19143;59.322;14.502;2023-05-10T08:26:40;4.57;;;3.03;;
32790;SDS011;19143;59.322;14.502;2023-05-10T08:29:07;15.50;;;3.53;;
32790;SDS011;19143;59.322;14.502;2023-05-10T08:31:34;3.50;;;3.30;;
32790;SDS011;19143;59.322;14.502;2023-05-10T08:34:00;5.40;;;2.93;;
32790;SDS011;19143;59.322;14.502;2023-05-10T08:36:27;7.10;;;3.50;;
32790;SDS011;19143;59.322;14.502;2023-05-10T08:38:53;3.47;;;3.27;;
32790;SDS011;19143;59.322;14.502;2023-05-10T08:41:29;10.27;;;2.93;;
32790;SDS011;19143;59.322;14.502;2023-05-10T08:43:56;7.27;;;3.30;;
32790;SDS011;19143;59.322;14.502;2023-05-10T08:46:22;3.47;;;3.07;;
32790;SDS011;19143;59.322;14.502;2023-05-10T08:48:50;7.33;;;3.30;;
32790;SDS011;19143;59.322;14.502;2023-05-10T08:51:17;4.93;;;3.23;;
32790;SDS011;19143;59.322;14.502;2023-05-10T08:53:44;9.40;;;3.70;;
32790;SDS011;19143;59.322;14.502;2023-05-10T08:56:11;7.07;;;3.30;;
32790;SDS011;19143;59.322;14.502;2023-05-10T08:58:39;3.63;;;3.10;;
32790;SDS011;19143;59.322;14.502;2023-05-10T09:01:06;8.43;;;3.27;;
32790;SDS011;19143;59.322;14.502;2023-05-10T09:03:34;36.90;;;4.70;;
32790;SDS011;19143;59.322;14.502;2023-05-10T09:06:01;4.03;;;3.67;;
32790;SDS011;19143;59.322;14.502;2023-05-10T09:08:28;9.17;;;2.80;;
32790;SDS011;19143;59.322;14.502;2023-05-10T09:10:56;9.77;;;2.90;;
32790;SDS011;19143;59.322;14.502;2023-05-10T09:13:22;8.13;;;3.03;;
32790;SDS011;19143;59.322;14.502;2023-05-10T09:15:51;7.63;;;3.20;;
32790;SDS011;19143;59.322;14.502;2023-05-10T09:18:18;4.67;;;2.63;;
32790;SDS011;19143;59.322;14.502;2023-05-10T09:20:44;3.03;;;2.73;;
32790;SDS011;19143;59.322;14.502;2023-05-10T09:23:11;8.73;;;2.60;;
32790;SDS011;19143;59.322;14.502;2023-05-10T09:25:38;13.50;;;2.93;;
32790;SDS011;19143;59.322;14.502;2023-05-10T09:28:06;8.23;;;2.97;;
32790;SDS011;19143;59.322;14.502;2023-05-10T09:30:32;4.70;;;2.90;;
32790;SDS011;19143;59.322;14.502;2023-05-10T09:33:01;4.37;;;2.90;;
32790;SDS011;19143;59.322;14.502;2023-05-10T09:35:30;2.70;;;2.50;;
32790;SDS011;19143;59.322;14.502;2023-05-10T09:38:00;4.30;;;3.03;;
32790;SDS011;19143;59.322;14.502;2023-05-10T09:40:27;7.10;;;2.73;;
32790;SDS011;19143;59.322;14.502;2023-05-10T09:42:55;8.23;;;2.77;;
32790;SDS011;19143;59.322;14.502;2023-05-10T09:45:23;7.63;;;2.80;;
32790;SDS011;19143;59.322;14.502;2023-05-10T09:47:50;4.33;;;2.80;;
32790;SDS011;19143;59.322;14.502;2023-05-10T09:50:18;5.53;;;2.70;;
32790;SDS011;19143;59.322;14.502;2023-05-10T09:52:46;5.80;;;2.67;;
32790;SDS011;19143;59.322;14.502;2023-05-10T09:55:21;3.10;;;2.90;;
32790;SDS011;19143;59.322;14.502;2023-05-10T09:57:48;2.70;;;2.50;;
32790;SDS011;19143;59.322;14.502;2023-05-10T10:00:16;15.63;;;2.70;;
32790;SDS011;19143;59.322;14.502;2023-05-10T10:02:44;5.70;;;2.87;;
32790;SDS011;19143;59.322;14.502;2023-05-10T10:05:11;6.63;;;2.60;;
32790;SDS011;19143;59.322;14.502;2023-05-10T10:07:39;4.40;;;2.70;;
32790;SDS011;19143;59.322;14.502;2023-05-10T10:10:06;5.90;;;3.10;;
32790;SDS011;19143;59.322;14.502;2023-05-10T10:12:36;2.90;;;2.70;;
32790;SDS011;19143;59.322;14.502;2023-05-10T10:15:03;11.30;;;2.63;;
32790;SDS011;19143;59.322;14.502;2023-05-10T10:17:31;5.57;;;2.60;;
32790;SDS011;19143;59.322;14.502;2023-05-10T10:19:58;7.43;;;2.80;;
32790;SDS011;19143;59.322;14.502;2023-05-10T10:22:25;20.73;;;3.80;;
32790;SDS011;19143;59.322;14.502;2023-05-10T10:24:54;10.57;;;2.90;;
32790;SDS011;19143;59.322;14.502;2023-05-10T10:27:22;4.17;;;2.47;;
32790;SDS011;19143;59.322;14.502;2023-05-10T10:29:52;6.60;;;3.20;;
32790;SDS011;19143;59.322;14.502;2023-05-10T10:32:22;3.60;;;2.63;;
32790;SDS011;19143;59.322;14.502;2023-05-10T10:34:52;6.47;;;2.63;;
32790;SDS011;19143;59.322;14.502;2023-05-10T10:37:18;3.93;;;2.50;;
32790;SDS011;19143;59.322;14.502;2023-05-10T10:39:48;5.10;;;2.80;;
32790;SDS011;19143;59.322;14.502;2023-05-10T10:42:17;4.77;;;2.63;;
32790;SDS011;19143;59.322;14.502;2023-05-10T10:45:13;7.20;;;2.77;;
32790;SDS011;19143;59.322;14.502;2023-05-10T10:47:40;2.47;;;2.33;;
32790;SDS011;19143;59.322;14.502;2023-05-10T10:50:08;5.83;;;2.50;;
32790;SDS011;19143;59.322;14.502;2023-05-10T10:52:37;2.90;;;2.70;;
32790;SDS011;19143;59.322;14.502;2023-05-10T10:55:05;2.80;;;2.60;;
32790;SDS011;19143;59.322;14.502;2023-05-10T10:57:42;6.13;;;2.50;;
32790;SDS011;19143;59.322;14.502;2023-05-10T11:00:18;4.40;;;2.67;;
32790;SDS011;19143;59.322;14.502;2023-05-10T11:02:45;5.70;;;2.90;;
32790;SDS011;19143;59.322;14.502;2023-05-10T11:05:23;4.30;;;2.57;;
32790;SDS011;19143;59.322;14.502;2023-05-10T11:07:52;2.60;;;2.43;;
32790;SDS011;19143;59.322;14.502;2023-05-10T11:10:19;4.03;;;2.67;;
32790;SDS011;19143;59.322;14.502;2023-05-10T11:12:54;3.10;;;2.63;;
32790;SDS011;19143;59.322;14.502;2023-05-10T11:15:28;3.53;;;2.40;;
32790;SDS011;19143;59.322;14.502;2023-05-10T11:17:55;7.97;;;2.70;;
32790;SDS011;19143;59.322;14.502;2023-05-10T11:20:22;5.03;;;2.73;;
32790;SDS011;19143;59.322;14.502;2023-05-10T11:22:54;2.90;;;2.60;;
32790;SDS011;19143;59.322;14.502;2023-05-10T11:25:26;7.43;;;2.60;;
32790;SDS011;19143;59.322;14.502;2023-05-10T11:27:54;3.30;;;2.50;;
32790;SDS011;19143;59.322;14.502;2023-05-10T11:30:21;22.70;;;3.80;;
32790;SDS011;19143;59.322;14.502;2023-05-10T11:32:48;6.10;;;3.00;;
32790;SDS011;19143;59.322;14.502;2023-05-10T11:35:15;2.97;;;2.77;;
32790;SDS011;19143;59.322;14.502;2023-05-10T11:37:42;4.63;;;2.40;;
32790;SDS011;19143;59.322;14.502;2023-05-10T11:40:10;5.30;;;2.57;;
32790;SDS011;19143;59.322;14.502;2023-05-10T11:42:37;7.60;;;2.57;;
32790;SDS011;19143;59.322;14.502;2023-05-10T11:45:06;20.03;;;3.30;;
32790;SDS011;19143;59.322;14.502;2023-05-10T11:47:33;3.87;;;2.83;;
32790;SDS011;19143;59.322;14.502;2023-05-10T11:50:02;5.73;;;2.73;;
32790;SDS011;19143;59.322;14.502;2023-05-10T11:52:29;2.70;;;2.60;;
32790;SDS011;19143;59.322;14.502;2023-05-10T11:54:55;4.67;;;2.87;;
32790;SDS011;19143;59.322;14.502;2023-05-10T11:57:25;3.80;;;2.50;;
32790;SDS011;19143;59.322;14.502;2023-05-10T11:59:52;5.23;;;2.70;;
32790;SDS011;19143;59.322;14.502;2023-05-10T12:02:21;5.40;;;2.60;;
32790;SDS011;19143;59.322;14.502;2023-05-10T12:04:47;4.50;;;2.53;;
32790;SDS011;19143;59.322;14.502;2023-05-10T12:07:14;4.93;;;2.57;;
32790;SDS011;19143;59.322;14.502;2023-05-10T12:09:43;10.37;;;5.30;;
32790;SDS011;19143;59.322;14.502;2023-05-10T12:12:10;8.57;;;2.47;;
32790;SDS011;19143;59.322;14.502;2023-05-10T12:14:36;3.00;;;2.70;;
32790;SDS011;19143;59.322;14.502;2023-05-10T12:17:03;6.77;;;2.93;;
32790;SDS011;19143;59.322;14.502;2023-05-10T12:19:38;3.37;;;2.80;;
32790;SDS011;19143;59.322;14.502;2023-05-10T12:22:04;9.53;;;2.77;;
32790;SDS011;19143;59.322;14.502;2023-05-10T12:24:33;13.57;;;3.00;;
32790;SDS011;19143;59.322;14.502;2023-05-10T12:26:59;5.70;;;4.67;;
32790;SDS011;19143;59.322;14.502;2023-05-10T12:29:33;4.23;;;2.40;;
32790;SDS011;19143;59.322;14.502;2023-05-10T12:32:00;4.10;;;2.60;;
32790;SDS011;19143;59.322;14.502;2023-05-10T12:34:29;6.20;;;2.53;;
32790;SDS011;19143;59.322;14.502;2023-05-10T12:36:58;15.30;;;3.07;;
32790;SDS011;19143;59.322;14.502;2023-05-10T12:39:25;4.53;;;2.43;;
32790;SDS011;19143;59.322;14.502;2023-05-10T12:41:52;6.80;;;2.70;;
32790;SDS011;19143;59.322;14.502;2023-05-10T12:44:18;5.37;;;3.47;;
32790;SDS011;19143;59.322;14.502;2023-05-10T12:46:45;7.77;;;2.70;;
32790;SDS011;19143;59.322;14.502;2023-05-10T12:49:11;2.53;;;2.20;;
32790;SDS011;19143;59.322;14.502;2023-05-10T12:51:38;2.60;;;2.47;;
32790;SDS011;19143;59.322;14.502;2023-05-10T12:54:07;7.77;;;2.47;;
32790;SDS011;19143;59.322;14.502;2023-05-10T12:56:33;3.77;;;3.50;;
32790;SDS011;19143;59.322;14.502;2023-05-10T12:59:00;19.43;;;2.83;;
32790;SDS011;19143;59.322;14.502;2023-05-10T13:01:27;2.30;;;2.20;;
32790;SDS011;19143;59.322;14.502;2023-05-10T13:03:53;3.57;;;2.13;;
32790;SDS011;19143;59.322;14.502;2023-05-10T13:06:20;3.20;;;2.43;;
32790;SDS011;19143;59.322;14.502;2023-05-10T13:08:47;5.50;;;2.97;;
32790;SDS011;19143;59.322;14.502;2023-05-10T13:11:16;5.83;;;2.53;;
32790;SDS011;19143;59.322;14.502;2023-05-10T13:13:44;11.00;;;2.80;;
32790;SDS011;19143;59.322;14.502;2023-05-10T13:16:14;3.47;;;2.90;;
32790;SDS011;19143;59.322;14.502;2023-05-10T13:18:40;6.50;;;2.73;;
32790;SDS011;19143;59.322;14.502;2023-05-10T13:21:07;14.70;;;3.53;;
32790;SDS011;19143;59.322;14.502;2023-05-10T13:23:33;4.83;;;2.70;;
32790;SDS011;19143;59.322;14.502;2023-05-10T13:26:00;4.83;;;2.73;;
32790;SDS011;19143;59.322;14.502;2023-05-10T13:33:39;5.23;;;2.70;;
32790;SDS011;19143;59.322;14.502;2023-05-10T13:36:06;6.53;;;2.70;;
32790;SDS011;19143;59.322;14.502;2023-05-10T13:38:33;6.57;;;2.60;;
32790;SDS011;19143;59.322;14.502;2023-05-10T13:40:59;2.70;;;2.50;;
32790;SDS011;19143;59.322;14.502;2023-05-10T13:43:29;11.87;;;2.57;;
32790;SDS011;19143;59.322;14.502;2023-05-10T13:45:55;7.30;;;2.83;;
32790;SDS011;19143;59.322;14.502;2023-05-10T13:48:22;7.27;;;2.80;;
32790;SDS011;19143;59.322;14.502;2023-05-10T13:50:50;6.90;;;2.70;;
32790;SDS011;19143;59.322;14.502;2023-05-10T13:53:17;2.90;;;2.50;;
32790;SDS011;19143;59.322;14.502;2023-05-10T13:55:44;2.70;;;2.40;;
32790;SDS011;19143;59.322;14.502;2023-05-10T13:58:14;5.23;;;2.73;;
32790;SDS011;19143;59.322;14.502;2023-05-10T14:00:40;6.03;;;2.40;;
32790;SDS011;19143;59.322;14.502;2023-05-10T14:03:07;9.70;;;2.93;;
32790;SDS011;19143;59.322;14.502;2023-05-10T14:05:36;4.60;;;2.40;;
32790;SDS011;19143;59.322;14.502;2023-05-10T14:08:05;5.47;;;2.70;;
32790;SDS011;19143;59.322;14.502;2023-05-10T14:10:34;12.23;;;2.73;;
32790;SDS011;19143;59.322;14.502;2023-05-10T14:13:01;8.17;;;2.50;;
32790;SDS011;19143;59.322;14.502;2023-05-10T14:15:31;3.60;;;2.60;;
32790;SDS011;19143;59.322;14.502;2023-05-10T14:17:58;5.43;;;3.27;;
32790;SDS011;19143;59.322;14.502;2023-05-10T14:20:25;2.80;;;2.47;;
32790;SDS011;19143;59.322;14.502;2023-05-10T14:22:57;2.50;;;2.30;;
32790;SDS011;19143;59.322;14.502;2023-05-10T14:25:26;6.23;;;2.53;;
32790;SDS011;19143;59.322;14.502;2023-05-10T14:27:53;5.40;;;2.67;;
32790;SDS011;19143;59.322;14.502;2023-05-10T14:30:20;2.90;;;2.60;;
32790;SDS011;19143;59.322;14.502;2023-05-10T14:32:46;2.70;;;2.50;;
32790;SDS011;19143;59.322;14.502;2023-05-10T14:35:13;11.23;;;3.10;;
32790;SDS011;19143;59.322;14.502;2023-05-10T14:37:39;5.80;;;2.87;;
32790;SDS011;19143;59.322;14.502;2023-05-10T14:40:08;4.03;;;2.77;;
32790;SDS011;19143;59.322;14.502;2023-05-10T14:42:36;4.33;;;2.93;;
32790;SDS011;19143;59.322;14.502;2023-05-10T14:45:03;4.87;;;2.70;;
32790;SDS011;19143;59.322;14.502;2023-05-10T14:47:30;4.43;;;2.70;;